createdAt,value
2019-01-20T00:00:23.140Z,90.66
2019-01-20T00:02:49.453Z,91.25
2019-01-20T00:05:15.763Z,91.40
2019-01-20T00:07:42.069Z,91.62
2019-01-20T00:10:08.387Z,91.84
2019-01-20T00:12:34.698Z,91.97
2019-01-20T00:15:01.006Z,92.18
2019-01-20T00:17:27.319Z,92.39
2019-01-20T00:19:53.629Z,92.49
2019-01-20T00:22:19.936Z,92.61
2019-01-20T00:24:46.248Z,92.76
2019-01-20T00:27:12.561Z,92.86
2019-01-20T00:29:38.869Z,93.04
2019-01-20T00:32:05.179Z,93.36
2019-01-20T00:34:31.487Z,93.63
2019-01-20T00:36:57.836Z,93.72
2019-01-20T00:39:24.109Z,93.97
2019-01-20T00:41:50.416Z,94.45
2019-01-20T00:44:16.721Z,94.48
2019-01-20T00:46:43.043Z,94.81
2019-01-20T00:49:09.351Z,95.07
2019-01-20T00:51:35.659Z,95.20
2019-01-20T00:54:01.988Z,95.91
2019-01-20T00:56:28.299Z,96.08
2019-01-20T00:58:54.606Z,96.48
2019-01-20T01:01:20.941Z,96.75
2019-01-20T01:03:47.248Z,96.97
2019-01-20T01:06:13.557Z,97.25
2019-01-20T01:08:39.869Z,97.51
2019-01-20T01:11:06.177Z,97.81
2019-01-20T01:13:32.510Z,97.95
2019-01-20T01:15:58.824Z,97.85
2019-01-20T01:18:25.133Z,97.84
2019-01-20T01:20:51.449Z,97.94
2019-01-20T01:23:17.752Z,97.88
2019-01-20T01:25:44.064Z,97.96
2019-01-20T01:28:10.376Z,97.81
2019-01-20T01:30:36.679Z,97.62
2019-01-20T01:33:02.987Z,97.69
2019-01-20T01:35:29.297Z,97.72
2019-01-20T01:37:55.678Z,97.60
2019-01-20T01:40:21.988Z,97.46
2019-01-20T01:42:48.302Z,97.45
2019-01-20T01:45:14.620Z,97.25
2019-01-20T01:47:40.932Z,97.15
2019-01-20T01:50:07.233Z,97.33
2019-01-20T01:52:33.540Z,97.42
2019-01-20T01:54:59.849Z,97.45
2019-01-20T01:57:26.169Z,97.39
2019-01-20T01:59:52.587Z,97.40
2019-01-20T02:02:18.815Z,97.50
2019-01-20T02:04:45.130Z,97.69
2019-01-20T02:07:11.473Z,97.67
2019-01-20T02:09:39.791Z,97.60
2019-01-20T02:12:04.096Z,97.72
2019-01-20T02:14:30.425Z,97.78
2019-01-20T02:16:56.736Z,97.72
2019-01-20T02:19:23.040Z,97.80
2019-01-20T02:21:49.376Z,97.87
2019-01-20T02:24:15.706Z,97.88
2019-01-20T02:26:42.015Z,97.90
2019-01-20T02:29:08.329Z,97.88
2019-01-20T02:31:34.635Z,97.86
2019-01-20T02:34:00.955Z,97.83
2019-01-20T02:36:27.266Z,97.86
2019-01-20T02:38:53.593Z,97.69
2019-01-20T02:41:19.927Z,97.62
2019-01-20T02:43:46.234Z,97.59
2019-01-20T02:46:12.551Z,97.53
2019-01-20T02:48:38.856Z,97.56
2019-01-20T02:51:05.167Z,97.60
2019-01-20T02:53:31.476Z,97.59
2019-01-20T02:55:57.814Z,97.52
2019-01-20T02:58:24.130Z,97.50
2019-01-20T03:00:50.441Z,97.46
2019-01-20T03:03:16.748Z,97.44
2019-01-20T03:05:43.159Z,97.37
2019-01-20T03:08:09.374Z,97.25
2019-01-20T03:10:35.685Z,97.18
2019-01-20T03:13:01.999Z,97.20
2019-01-20T03:15:29.338Z,97.25
2019-01-20T03:17:54.614Z,97.18
2019-01-20T03:20:20.935Z,97.21
2019-01-20T03:22:47.253Z,97.21
2019-01-20T03:25:13.556Z,97.23
2019-01-20T03:27:39.874Z,97.31
2019-01-20T03:30:06.169Z,97.38
2019-01-20T03:32:32.477Z,97.31
2019-01-20T03:34:58.780Z,97.34
2019-01-20T03:37:25.107Z,97.30
2019-01-20T03:39:51.413Z,97.25
2019-01-20T03:42:17.726Z,97.23
2019-01-20T03:44:44.027Z,97.19
2019-01-20T03:47:10.335Z,97.27
2019-01-20T03:49:36.640Z,97.16
2019-01-20T03:52:02.953Z,97.16
2019-01-20T03:54:29.261Z,97.07
2019-01-20T03:56:55.567Z,96.99
2019-01-20T03:59:21.881Z,97.08
2019-01-20T04:01:48.193Z,96.95
2019-01-20T04:04:14.503Z,96.93
2019-01-20T04:06:40.822Z,96.87
2019-01-20T04:09:07.132Z,96.81
2019-01-20T04:11:33.443Z,96.71
2019-01-20T04:13:59.755Z,96.70
2019-01-20T04:16:26.065Z,96.71
2019-01-20T04:18:52.379Z,96.68
2019-01-20T04:21:18.696Z,96.72
2019-01-20T04:23:44.998Z,96.72
2019-01-20T04:26:11.316Z,96.69
2019-01-20T04:28:37.619Z,96.57
2019-01-20T04:31:03.929Z,96.47
2019-01-20T04:33:30.246Z,96.49
2019-01-20T04:35:56.548Z,96.55
2019-01-20T04:38:22.863Z,96.44
2019-01-20T04:40:49.181Z,96.48
2019-01-20T04:43:15.489Z,96.42
2019-01-20T04:45:41.799Z,96.38
2019-01-20T04:48:08.112Z,96.42
2019-01-20T04:50:34.416Z,96.24
2019-01-20T04:53:00.734Z,96.26
2019-01-20T04:55:27.031Z,96.16
2019-01-20T04:57:53.343Z,96.07
2019-01-20T05:00:19.648Z,96.05
2019-01-20T05:02:45.973Z,95.95
2019-01-20T05:05:12.281Z,95.81
2019-01-20T05:07:38.589Z,95.69
2019-01-20T05:10:04.902Z,95.69
2019-01-20T05:12:37.562Z,95.67
2019-01-20T05:14:57.523Z,95.74
2019-01-20T05:17:23.833Z,95.71
2019-01-20T05:19:50.141Z,95.72
2019-01-20T05:22:16.486Z,95.66
2019-01-20T05:24:42.795Z,95.90
2019-01-20T05:27:09.101Z,95.90
2019-01-20T05:29:35.408Z,95.91
2019-01-20T05:32:01.714Z,96.04
2019-01-20T05:34:28.029Z,95.97
2019-01-20T05:36:54.329Z,95.98
2019-01-20T05:39:20.711Z,96.25
2019-01-20T05:41:47.021Z,96.23
2019-01-20T05:44:13.330Z,96.29
2019-01-20T05:46:39.634Z,96.31
2019-01-20T05:49:06.024Z,96.27
2019-01-20T05:51:32.337Z,96.28
2019-01-20T05:53:58.693Z,96.21
2019-01-20T05:56:24.998Z,96.17
2019-01-20T05:58:51.307Z,96.13
2019-01-20T06:01:17.612Z,96.03
2019-01-20T06:03:43.920Z,95.96
2019-01-20T06:06:10.228Z,96.01
2019-01-20T06:08:36.536Z,96.08
2019-01-20T06:11:02.848Z,96.13
2019-01-20T06:13:29.157Z,96.01
2019-01-20T06:15:55.464Z,95.96
2019-01-20T06:18:21.777Z,96.00
2019-01-20T06:20:48.080Z,96.00
2019-01-20T06:23:14.393Z,95.92
2019-01-20T06:25:40.701Z,95.78
2019-01-20T06:28:07.013Z,95.67
2019-01-20T06:30:33.311Z,95.59
2019-01-20T06:32:59.625Z,95.53
2019-01-20T06:35:25.937Z,95.55
2019-01-20T06:37:52.243Z,95.43
2019-01-20T06:40:18.543Z,95.34
2019-01-20T06:42:44.850Z,95.25
2019-01-20T06:45:11.160Z,95.13
2019-01-20T06:47:37.471Z,94.99
2019-01-20T06:50:03.781Z,94.67
2019-01-20T06:52:30.143Z,94.49
2019-01-20T06:54:56.462Z,93.85
2019-01-20T06:57:22.818Z,93.79
2019-01-20T06:59:49.128Z,93.18
2019-01-20T07:02:15.446Z,92.23
2019-01-20T07:04:41.749Z,92.06
2019-01-20T07:07:08.064Z,91.75
2019-01-20T07:09:34.375Z,91.29
2019-01-20T07:12:00.691Z,90.77
2019-01-20T07:14:26.990Z,89.84
2019-01-20T07:16:53.299Z,89.59
2019-01-20T07:19:19.624Z,89.37
2019-01-20T07:21:45.963Z,89.51
2019-01-20T07:24:12.269Z,89.61
2019-01-20T07:26:38.577Z,89.81
2019-01-20T07:29:04.885Z,89.80
2019-01-20T07:31:31.194Z,89.80
2019-01-20T07:33:57.517Z,89.85
2019-01-20T07:36:23.835Z,89.90
2019-01-20T07:38:50.151Z,89.86
2019-01-20T07:41:16.458Z,89.93
2019-01-20T07:43:42.763Z,90.18
2019-01-20T07:46:09.068Z,90.08
2019-01-20T07:48:35.381Z,89.85
2019-01-20T07:51:01.692Z,89.94
2019-01-20T07:53:28.003Z,89.80
2019-01-20T07:55:54.346Z,89.51
2019-01-20T07:58:20.653Z,88.41
2019-01-20T08:00:46.959Z,87.97
2019-01-20T08:03:13.283Z,87.57
2019-01-20T08:05:39.593Z,87.76
2019-01-20T08:08:05.910Z,87.81
2019-01-20T08:10:32.246Z,87.89
2019-01-20T08:12:58.557Z,87.80
2019-01-20T08:15:24.877Z,87.03
2019-01-20T08:17:51.186Z,86.41
2019-01-20T08:20:17.496Z,86.75
2019-01-20T08:22:43.808Z,86.73
2019-01-20T08:25:10.113Z,86.09
2019-01-20T08:27:36.415Z,85.25
2019-01-20T08:30:02.743Z,84.52
2019-01-20T08:32:29.054Z,84.50
2019-01-20T08:34:55.363Z,84.79
2019-01-20T08:37:28.657Z,84.51
2019-01-20T08:39:48.102Z,84.32
2019-01-20T08:42:14.416Z,83.97
2019-01-20T08:44:40.754Z,84.13
2019-01-20T08:47:07.116Z,84.33
2019-01-20T08:49:33.430Z,83.91
2019-01-20T08:51:59.740Z,84.36
2019-01-20T08:54:26.085Z,84.25
2019-01-20T08:56:52.401Z,84.10
2019-01-20T08:59:18.717Z,84.25
2019-01-20T09:01:45.039Z,84.87
2019-01-20T09:04:11.353Z,84.50
2019-01-20T09:06:37.662Z,85.01
2019-01-20T09:09:04.005Z,84.54
2019-01-20T09:11:30.314Z,84.56
2019-01-20T09:13:56.625Z,84.84
2019-01-20T09:16:22.946Z,85.54
2019-01-20T09:18:49.263Z,85.38
2019-01-20T09:21:15.589Z,85.44
2019-01-20T09:23:41.897Z,85.40
2019-01-20T09:26:08.224Z,85.73
2019-01-20T09:28:34.538Z,85.92
2019-01-20T09:31:00.855Z,86.40
2019-01-20T09:33:28.011Z,86.67
2019-01-20T09:35:54.338Z,86.48
2019-01-20T09:38:20.641Z,86.19
2019-01-20T09:40:46.952Z,86.19
2019-01-20T09:43:13.259Z,85.75
2019-01-20T09:45:39.574Z,85.75
2019-01-20T09:48:05.894Z,85.17
2019-01-20T09:50:32.208Z,84.60
2019-01-20T09:52:58.519Z,85.04
2019-01-20T09:55:24.940Z,85.28
2019-01-20T09:57:51.248Z,85.70
2019-01-20T10:00:17.575Z,85.69
2019-01-20T10:02:43.887Z,85.95
2019-01-20T10:05:20.527Z,85.42
2019-01-20T10:07:45.075Z,84.31
2019-01-20T10:10:11.514Z,84.32
2019-01-20T10:12:37.785Z,83.12
2019-01-20T10:15:04.147Z,83.37
2019-01-20T10:17:48.357Z,83.29
2019-01-20T10:20:17.100Z,83.74
2019-01-20T10:22:41.409Z,83.86
2019-01-20T10:25:14.921Z,83.72
2019-01-20T10:27:35.581Z,83.98
2019-01-20T10:30:00.357Z,83.73
2019-01-20T10:32:26.688Z,84.03
2019-01-20T10:34:59.451Z,84.20
2019-01-20T10:37:22.312Z,84.35
2019-01-20T10:39:48.620Z,84.62
2019-01-20T10:42:14.928Z,84.13
2019-01-20T10:44:41.261Z,83.90
2019-01-20T10:47:07.564Z,83.83
2019-01-20T10:49:33.879Z,84.12
2019-01-20T10:52:00.220Z,83.84
2019-01-20T10:54:26.538Z,83.47
2019-01-20T10:56:52.843Z,84.01
2019-01-20T10:59:19.157Z,83.79
2019-01-20T11:01:45.477Z,83.88
2019-01-20T11:04:11.780Z,83.64
2019-01-20T11:06:38.109Z,83.52
2019-01-20T11:09:04.968Z,83.08
2019-01-20T11:11:31.159Z,82.99
2019-01-20T11:13:57.471Z,83.12
2019-01-20T11:16:23.817Z,83.61
2019-01-20T11:18:50.124Z,83.39
2019-01-20T11:21:16.821Z,83.72
2019-01-20T11:23:43.148Z,82.39
2019-01-20T11:26:09.459Z,82.77
2019-01-20T11:28:35.769Z,82.26
2019-01-20T11:31:02.086Z,82.41
2019-01-20T11:33:28.418Z,82.72
2019-01-20T11:35:54.724Z,83.07
2019-01-20T11:38:21.121Z,83.37
2019-01-20T11:40:47.433Z,83.40
2019-01-20T11:43:13.740Z,82.65
2019-01-20T11:45:40.709Z,82.21
2019-01-20T11:48:07.022Z,81.61
2019-01-20T11:50:33.335Z,82.69
2019-01-20T11:52:59.659Z,82.69
2019-01-20T11:55:25.983Z,82.38
2019-01-20T11:57:52.414Z,81.93
2019-01-20T12:00:19.077Z,82.08
2019-01-20T12:02:45.487Z,82.00
2019-01-20T12:05:11.914Z,81.80
2019-01-20T12:07:38.947Z,81.48
2019-01-20T12:10:05.259Z,81.93
2019-01-20T12:12:31.601Z,82.37
2019-01-20T12:14:57.914Z,82.45
2019-01-20T12:17:24.221Z,82.49
2019-01-20T12:19:50.540Z,82.87
2019-01-20T12:22:16.855Z,82.90
2019-01-20T12:24:43.161Z,82.75
2019-01-20T12:27:09.547Z,82.47
2019-01-20T12:29:35.869Z,82.10
2019-01-20T12:32:02.180Z,81.60
2019-01-20T12:34:28.604Z,82.18
2019-01-20T12:36:54.893Z,82.12
2019-01-20T12:39:21.209Z,81.78
2019-01-20T12:41:47.520Z,81.67
2019-01-20T12:44:13.834Z,81.29
2019-01-20T12:46:40.137Z,81.11
2019-01-20T12:49:06.462Z,81.10
2019-01-20T12:51:32.768Z,82.07
2019-01-20T12:53:59.083Z,81.00
2019-01-20T12:56:25.402Z,81.63
2019-01-20T12:58:51.707Z,81.82
2019-01-20T13:01:18.034Z,81.61
2019-01-20T13:03:44.352Z,81.44
2019-01-20T13:06:10.686Z,81.22
2019-01-20T13:08:36.996Z,80.42
2019-01-20T13:11:03.307Z,80.67
2019-01-20T13:13:29.616Z,79.84
2019-01-20T13:15:55.931Z,80.14
2019-01-20T13:18:22.239Z,80.22
2019-01-20T13:20:48.701Z,80.44
2019-01-20T13:23:15.027Z,80.50
2019-01-20T13:25:41.329Z,80.20
2019-01-20T13:28:07.639Z,80.00
2019-01-20T13:30:33.943Z,80.28
2019-01-20T13:33:00.284Z,80.31
2019-01-20T13:35:26.594Z,80.04
2019-01-20T13:37:52.982Z,80.08
2019-01-20T13:40:19.250Z,80.30
2019-01-20T13:42:45.560Z,80.53
2019-01-20T13:45:11.874Z,81.46
2019-01-20T13:47:38.183Z,81.73
2019-01-20T13:50:04.495Z,81.81
2019-01-20T13:52:30.813Z,82.59
2019-01-20T13:54:57.160Z,82.88
2019-01-20T13:57:23.472Z,83.23
2019-01-20T13:59:49.782Z,83.35
2019-01-20T14:02:16.086Z,83.69
2019-01-20T14:04:42.393Z,83.46
2019-01-20T14:07:08.704Z,83.67
2019-01-20T14:09:35.013Z,83.79
2019-01-20T14:12:01.325Z,84.16
2019-01-20T14:14:27.632Z,84.48
2019-01-20T14:16:53.948Z,84.56
2019-01-20T14:19:21.842Z,83.46
2019-01-20T14:21:46.563Z,84.80
2019-01-20T14:24:12.875Z,84.69
2019-01-20T14:26:39.186Z,84.93
2019-01-20T14:29:05.496Z,84.84
2019-01-20T14:31:31.800Z,85.10
2019-01-20T14:33:58.108Z,85.29
2019-01-20T14:36:24.420Z,85.46
2019-01-20T14:38:50.732Z,85.82
2019-01-20T14:41:17.045Z,85.80
2019-01-20T14:43:43.355Z,86.04
2019-01-20T14:46:09.677Z,86.12
2019-01-20T14:48:35.988Z,86.21
2019-01-20T14:51:02.299Z,86.42
2019-01-20T14:53:28.618Z,86.30
2019-01-20T14:55:54.925Z,86.24
2019-01-20T14:58:21.243Z,86.34
2019-01-20T15:00:47.553Z,86.01
2019-01-20T15:03:13.865Z,86.07
2019-01-20T15:05:40.163Z,86.26
2019-01-20T15:08:06.471Z,86.17
2019-01-20T15:10:32.791Z,86.49
2019-01-20T15:12:59.100Z,86.33
2019-01-20T15:15:25.412Z,86.54
2019-01-20T15:17:51.722Z,86.57
2019-01-20T15:20:18.039Z,86.56
2019-01-20T15:22:44.391Z,86.63
2019-01-20T15:25:10.667Z,86.67
2019-01-20T15:27:38.066Z,86.91
2019-01-20T15:30:03.291Z,86.81
2019-01-20T15:32:29.595Z,86.92
2019-01-20T15:34:55.899Z,87.20
2019-01-20T15:37:22.209Z,87.23
2019-01-20T15:39:50.435Z,87.60
2019-01-20T15:42:16.684Z,88.16
2019-01-20T15:44:43.010Z,88.50
2019-01-20T15:47:09.320Z,88.67
2019-01-20T15:49:35.653Z,89.36
2019-01-20T15:52:01.990Z,90.54
2019-01-20T15:54:28.306Z,91.63
2019-01-20T15:56:54.628Z,93.91
2019-01-20T15:59:20.937Z,95.54
2019-01-20T16:01:47.258Z,96.76
2019-01-20T16:04:13.577Z,98.40
2019-01-20T16:06:40.008Z,99.28
2019-01-20T16:09:06.315Z,99.86
2019-01-20T16:11:32.665Z,99.99
2019-01-20T16:13:59.153Z,100.00
2019-01-20T16:16:25.469Z,100.00
2019-01-20T16:18:51.780Z,100.00
2019-01-20T16:21:18.087Z,100.00
2019-01-20T16:23:44.480Z,100.00
2019-01-20T16:26:10.794Z,100.00
2019-01-20T16:28:39.163Z,100.00
2019-01-20T16:31:03.535Z,100.00
2019-01-20T16:33:29.847Z,100.00
2019-01-20T16:35:56.178Z,100.00
2019-01-20T16:38:22.495Z,100.00
2019-01-20T16:40:48.802Z,100.00
2019-01-20T16:43:15.409Z,100.00
2019-01-20T16:45:42.458Z,100.00
2019-01-20T16:48:08.036Z,100.00
2019-01-20T16:50:34.345Z,100.00
2019-01-20T16:53:00.653Z,100.00
2019-01-20T16:55:26.966Z,100.00
2019-01-20T16:57:53.279Z,100.00
2019-01-20T17:00:19.594Z,100.00
2019-01-20T17:02:45.905Z,100.00
2019-01-20T17:05:12.227Z,100.00
2019-01-20T17:07:38.532Z,100.00
2019-01-20T17:10:04.872Z,100.00
2019-01-20T17:12:31.409Z,100.00
2019-01-20T17:14:57.733Z,100.00
2019-01-20T17:17:24.032Z,100.00
2019-01-20T17:19:50.364Z,100.00
2019-01-20T17:22:16.678Z,100.00
2019-01-20T17:24:42.992Z,100.00
2019-01-20T17:27:09.720Z,100.00
2019-01-20T17:29:36.314Z,100.00
2019-01-20T17:32:03.606Z,100.00
2019-01-20T17:34:29.326Z,100.00
2019-01-20T17:36:55.643Z,100.00
2019-01-20T17:39:22.360Z,100.00
2019-01-20T17:41:48.915Z,100.00
2019-01-20T17:44:15.230Z,100.00
2019-01-20T17:46:41.543Z,100.00
2019-01-20T17:49:07.947Z,100.00
2019-01-20T17:51:34.259Z,100.00
2019-01-20T17:54:03.378Z,100.00
2019-01-20T17:56:29.686Z,100.00
2019-01-20T17:58:56.051Z,100.00
2019-01-20T18:01:22.310Z,100.00
2019-01-20T18:03:48.624Z,100.00
2019-01-20T18:06:14.935Z,100.00
2019-01-20T18:08:41.278Z,100.00
2019-01-20T18:11:07.585Z,100.00
2019-01-20T18:13:33.896Z,100.00
2019-01-20T18:16:00.215Z,100.00
2019-01-20T18:18:26.537Z,100.00
2019-01-20T18:20:52.853Z,100.00
2019-01-20T18:23:19.157Z,100.00
2019-01-20T18:25:45.521Z,100.00
2019-01-20T18:28:11.832Z,100.00
2019-01-20T18:30:38.138Z,100.00
2019-01-20T18:33:04.462Z,100.00
2019-01-20T18:35:30.774Z,100.00
2019-01-20T18:37:57.361Z,100.00
2019-01-20T18:40:23.681Z,100.00
2019-01-20T18:42:52.454Z,100.00
2019-01-20T18:45:18.766Z,100.00
2019-01-20T18:47:45.090Z,100.00
2019-01-20T18:50:11.407Z,100.00
2019-01-20T18:52:37.728Z,100.00
2019-01-20T18:55:04.042Z,100.00
2019-01-20T18:57:30.374Z,100.00
2019-01-20T18:59:56.677Z,100.00
2019-01-20T19:02:22.983Z,100.00
2019-01-20T19:04:49.308Z,100.00
2019-01-20T19:07:15.616Z,100.00
2019-01-20T19:09:41.931Z,100.00
2019-01-20T19:12:08.246Z,100.00
2019-01-20T19:14:34.561Z,100.00
2019-01-20T19:17:01.017Z,100.00
2019-01-20T19:19:27.354Z,100.00
2019-01-20T19:21:53.651Z,100.00
2019-01-20T19:24:19.977Z,100.00
2019-01-20T19:26:46.606Z,100.00
2019-01-20T19:29:12.917Z,100.00
2019-01-20T19:31:39.244Z,100.00
2019-01-20T19:34:05.595Z,100.00
2019-01-20T19:36:32.950Z,100.00
2019-01-20T19:38:59.269Z,100.00
2019-01-20T19:41:25.580Z,100.00
2019-01-20T19:43:51.897Z,100.00
2019-01-20T19:46:18.217Z,100.00
2019-01-20T19:48:44.537Z,100.00
2019-01-20T19:51:10.856Z,100.00
2019-01-20T19:53:37.188Z,100.00
2019-01-20T19:56:03.532Z,100.00
2019-01-20T19:58:29.849Z,100.00
2019-01-20T20:00:56.191Z,100.00
2019-01-20T20:03:22.549Z,100.00
2019-01-20T20:05:48.866Z,100.00
2019-01-20T20:08:15.206Z,100.00
2019-01-20T20:10:41.537Z,100.00
2019-01-20T20:13:07.872Z,100.00
2019-01-20T20:15:34.327Z,100.00
2019-01-20T20:18:00.640Z,100.00
2019-01-20T20:20:27.029Z,100.00
2019-01-20T20:22:53.292Z,100.00
2019-01-20T20:25:19.608Z,100.00
2019-01-20T20:27:45.938Z,100.00
2019-01-20T20:30:12.237Z,100.00
2019-01-20T20:32:38.553Z,100.00
2019-01-20T20:35:04.910Z,100.00
2019-01-20T20:37:31.181Z,100.00
2019-01-20T20:39:57.493Z,100.00
2019-01-20T20:42:23.830Z,100.00
2019-01-20T20:44:50.136Z,100.00
2019-01-20T20:47:16.454Z,100.00
2019-01-20T20:49:42.802Z,100.00
2019-01-20T20:52:09.078Z,100.00
2019-01-20T20:54:35.852Z,100.00
2019-01-20T20:57:01.823Z,100.00
2019-01-20T20:59:28.134Z,100.00
2019-01-20T21:01:54.451Z,100.00
2019-01-20T21:04:20.758Z,100.00
2019-01-20T21:06:47.076Z,100.00
2019-01-20T21:09:13.402Z,100.00
2019-01-20T21:11:39.722Z,100.00
2019-01-20T21:14:06.050Z,100.00
2019-01-20T21:16:37.850Z,100.00
2019-01-20T21:18:58.684Z,100.00
2019-01-20T21:21:26.662Z,100.00
2019-01-20T21:23:51.306Z,100.00
2019-01-20T21:26:17.620Z,100.00
2019-01-20T21:28:43.921Z,100.00
2019-01-20T21:31:10.395Z,100.00
2019-01-20T21:33:36.706Z,100.00
2019-01-20T21:36:03.018Z,100.00
2019-01-20T21:38:29.334Z,100.00
2019-01-20T21:40:55.649Z,100.00
2019-01-20T21:43:21.982Z,100.00
2019-01-20T21:45:48.300Z,100.00
2019-01-20T21:48:14.631Z,100.00
2019-01-20T21:50:40.945Z,100.00
2019-01-20T21:53:07.264Z,100.00
2019-01-20T21:55:33.581Z,100.00
2019-01-20T21:57:59.897Z,100.00
2019-01-20T22:00:26.230Z,100.00
2019-01-20T22:02:52.545Z,100.00
2019-01-20T22:05:18.909Z,100.00
2019-01-20T22:07:45.192Z,100.00
2019-01-20T22:10:11.506Z,100.00
2019-01-20T22:12:37.836Z,100.00
2019-01-20T22:15:04.199Z,100.00
2019-01-20T22:17:30.528Z,100.00
2019-01-20T22:19:56.849Z,100.00
2019-01-20T22:22:23.175Z,100.00
2019-01-20T22:24:49.490Z,100.00
2019-01-20T22:27:15.808Z,100.00
2019-01-20T22:29:42.119Z,100.00
2019-01-20T22:32:08.477Z,100.00
2019-01-20T22:34:34.757Z,100.00
2019-01-20T22:37:01.076Z,100.00
2019-01-20T22:39:27.408Z,100.00
2019-01-20T22:41:53.833Z,100.00
2019-01-20T22:44:20.063Z,100.00
2019-01-20T22:46:46.391Z,100.00
2019-01-20T22:49:12.694Z,100.00
2019-01-20T22:51:39.051Z,100.00
2019-01-20T22:54:05.404Z,100.00
2019-01-20T22:56:31.720Z,100.00
2019-01-20T22:58:58.032Z,100.00
2019-01-20T23:01:24.342Z,100.00
2019-01-20T23:03:50.655Z,100.00
2019-01-20T23:06:16.964Z,100.00
2019-01-20T23:08:43.304Z,100.00
2019-01-20T23:11:09.613Z,100.00
2019-01-20T23:13:35.933Z,100.00
2019-01-20T23:16:02.237Z,100.00
2019-01-20T23:18:28.545Z,100.00
2019-01-20T23:20:54.858Z,100.00
2019-01-20T23:23:21.172Z,100.00
2019-01-20T23:25:47.483Z,100.00
2019-01-20T23:28:14.091Z,100.00
2019-01-20T23:30:42.808Z,100.00
2019-01-20T23:33:09.123Z,100.00
2019-01-20T23:35:35.451Z,100.00
2019-01-20T23:38:01.769Z,100.00
2019-01-20T23:40:28.080Z,100.00
2019-01-20T23:42:54.394Z,100.00
2019-01-20T23:45:20.703Z,100.00
2019-01-20T23:47:47.033Z,100.00
2019-01-20T23:50:13.321Z,100.00
2019-01-20T23:52:39.681Z,100.00
2019-01-20T23:55:05.941Z,100.00
2019-01-20T23:57:32.244Z,100.00
2019-01-20T23:59:58.562Z,100.00
